createdAt,value
2022-10-03T00:00:11.637Z,100816.22
2022-10-03T00:03:14.586Z,100792.06
2022-10-03T00:05:56.921Z,100817.91
2022-10-03T00:08:40.169Z,100819.63
2022-10-03T00:11:25.980Z,100815.09
2022-10-03T00:14:01.872Z,100815.09
2022-10-03T00:16:40.370Z,100828.16
2022-10-03T00:19:18.253Z,100827.28
2022-10-03T00:21:59.145Z,100825.44
2022-10-03T00:24:38.764Z,100832.53
2022-10-03T00:27:14.382Z,100822.75
2022-10-03T00:29:52.445Z,100798.41
2022-10-03T00:32:34.861Z,100829.13
2022-10-03T00:35:15.648Z,100832.66
2022-10-03T00:37:50.348Z,100835.34
2022-10-03T00:40:48.622Z,100839.88
2022-10-03T00:43:58.139Z,100844.56
2022-10-03T00:46:51.298Z,100841.00
2022-10-03T00:49:57.860Z,100832.94
2022-10-03T00:52:42.356Z,100832.94
2022-10-03T00:55:22.661Z,100841.72
2022-10-03T00:58:14.373Z,100840.88
2022-10-03T01:00:51.363Z,100840.13
2022-10-03T01:03:30.977Z,100856.88
2022-10-03T01:06:24.726Z,100854.34
2022-10-03T01:09:17.941Z,100856.28
2022-10-03T01:12:09.029Z,100847.28
2022-10-03T01:14:54.692Z,100858.88
2022-10-03T01:17:35.508Z,100857.84
2022-10-03T01:20:24.172Z,100863.13
2022-10-03T01:23:17.891Z,100867.50
2022-10-03T01:25:54.294Z,100863.13
2022-10-03T01:29:00.825Z,100865.38
2022-10-03T01:31:36.124Z,100864.25
2022-10-03T01:34:12.270Z,100867.91
2022-10-03T01:36:49.980Z,100873.75
2022-10-03T01:39:29.987Z,100874.88
2022-10-03T01:42:02.430Z,100881.81
2022-10-03T01:44:41.714Z,100874.59
2022-10-03T01:47:26.230Z,100875.59
2022-10-03T01:50:01.942Z,100886.09
2022-10-03T01:52:39.088Z,100885.97
2022-10-03T01:55:17.045Z,100885.13
2022-10-03T01:57:51.529Z,100890.34
2022-10-03T02:00:23.414Z,100890.34
2022-10-03T02:03:01.555Z,100891.22
2022-10-03T02:05:43.095Z,100886.94
2022-10-03T02:08:25.029Z,100899.28
2022-10-03T02:11:01.585Z,100891.22
2022-10-03T02:13:40.446Z,100898.31
2022-10-03T02:16:15.706Z,100900.16
2022-10-03T02:18:50.565Z,100895.63
2022-10-03T02:21:22.070Z,100900.16
2022-10-03T02:23:52.901Z,100902.84
2022-10-03T02:26:58.617Z,100902.69
2022-10-03T02:29:40.483Z,100904.66
2022-10-03T02:32:36.409Z,100885.06
2022-10-03T02:35:46.471Z,100909.94
2022-10-03T02:38:30.194Z,100901.53
2022-10-03T02:41:23.194Z,100911.78
2022-10-03T02:44:13.449Z,100914.56
2022-10-03T02:47:08.537Z,100913.59
2022-10-03T02:50:03.810Z,100919.97
2022-10-03T02:53:08.204Z,100907.16
2022-10-03T02:55:51.966Z,100915.69
2022-10-03T02:58:49.816Z,100913.88
2022-10-03T03:01:38.382Z,100910.31
2022-10-03T03:04:57.569Z,100915.69
2022-10-03T03:07:52.676Z,100910.47
2022-10-03T03:10:40.900Z,100917.41
2022-10-03T03:13:42.364Z,100915.13
2022-10-03T03:16:37.037Z,100923.06
2022-10-03T03:19:14.524Z,100911.44
2022-10-03T03:21:52.381Z,100909.13
2022-10-03T03:24:50.709Z,100930.97
2022-10-03T03:27:33.982Z,100925.59
2022-10-03T03:30:06.869Z,100920.22
2022-10-03T03:32:57.925Z,100926.34
2022-10-03T03:35:35.329Z,100933.56
2022-10-03T03:38:16.012Z,100922.78
2022-10-03T03:40:57.045Z,100936.25
2022-10-03T03:43:44.826Z,100933.41
2022-10-03T03:46:35.519Z,100931.72
2022-10-03T03:49:41.596Z,100883.31
2022-10-03T03:52:31.933Z,100939.81
2022-10-03T03:55:15.158Z,100938.94
2022-10-03T03:58:08.089Z,100946.06
2022-10-03T04:00:54.619Z,100937.97
2022-10-03T04:03:37.102Z,100946.06
2022-10-03T04:06:23.812Z,100954.13
2022-10-03T04:09:10.212Z,100957.78
2022-10-03T04:11:51.837Z,100955.09
2022-10-03T04:14:55.029Z,100959.50
2022-10-03T04:18:02.882Z,100961.34
2022-10-03T04:20:49.001Z,100964.13
2022-10-03T04:23:29.452Z,100965.84
2022-10-03T04:26:13.292Z,100943.66
2022-10-03T04:28:59.936Z,100965.84
2022-10-03T04:31:45.221Z,100973.94
2022-10-03T04:34:31.164Z,100975.66
2022-10-03T04:37:16.216Z,100979.94
2022-10-03T04:39:54.841Z,100984.31
2022-10-03T04:42:40.983Z,100983.44
2022-10-03T04:45:29.224Z,100996.19
2022-10-03T04:48:06.706Z,100983.59
2022-10-03T04:50:43.401Z,100996.06
2022-10-03T04:53:28.947Z,100988.97
2022-10-03T04:56:12.900Z,100997.91
2022-10-03T04:58:44.322Z,100989.38
2022-10-03T05:01:18.918Z,100997.03
2022-10-03T05:03:55.768Z,100993.38
2022-10-03T05:06:38.996Z,100992.06
2022-10-03T05:09:22.670Z,101004.97
2022-10-03T05:12:03.764Z,101004.16
2022-10-03T05:14:48.484Z,101002.28
2022-10-03T05:17:23.609Z,100981.94
2022-10-03T05:20:05.370Z,101004.00
2022-10-03T05:22:52.120Z,101004.00
2022-10-03T05:25:30.670Z,101008.53
2022-10-03T05:28:08.247Z,101010.25
2022-10-03T05:30:44.814Z,101010.38
2022-10-03T05:33:24.545Z,100987.31
2022-10-03T05:36:12.105Z,101019.19
2022-10-03T05:39:02.660Z,101008.53
2022-10-03T05:41:33.365Z,101017.47
2022-10-03T05:44:11.567Z,101007.41
2022-10-03T05:46:54.222Z,101012.94
2022-10-03T05:50:10.983Z,101021.03
2022-10-03T05:53:00.222Z,101017.59
2022-10-03T05:55:43.389Z,101023.72
2022-10-03T05:59:05.333Z,101011.22
2022-10-03T06:02:17.460Z,101027.50
2022-10-03T06:05:08.927Z,101023.09
2022-10-03T06:07:53.264Z,101026.50
2022-10-03T06:10:50.944Z,101022.00
2022-10-03T06:13:30.633Z,101025.69
2022-10-03T06:16:05.290Z,101055.88
2022-10-03T06:18:57.155Z,101063.94
2022-10-03T06:21:45.821Z,101061.66
2022-10-03T06:24:43.261Z,101060.31
2022-10-03T06:27:44.377Z,101063.78
2022-10-03T06:30:23.565Z,101055.59
2022-10-03T06:33:51.500Z,101064.75
2022-10-03T06:36:50.440Z,101065.28
2022-10-03T06:39:51.777Z,101062.94
2022-10-03T06:42:40.357Z,101068.56
2022-10-03T06:45:43.951Z,101072.50
2022-10-03T06:48:51.807Z,101072.03
2022-10-03T06:51:47.973Z,101083.00
2022-10-03T06:54:51.730Z,101090.34
2022-10-03T06:57:35.475Z,101089.63
2022-10-03T07:00:13.451Z,101089.63
2022-10-03T07:03:21.641Z,101093.03
2022-10-03T07:06:10.162Z,101089.34
2022-10-03T07:09:20.515Z,101092.03
2022-10-03T07:12:14.286Z,101095.56
2022-10-03T07:15:05.898Z,101092.59
2022-10-03T07:18:03.656Z,101103.19
2022-10-03T07:21:01.161Z,101097.81
2022-10-03T07:24:03.438Z,101102.22
2022-10-03T07:27:06.814Z,101105.16
2022-10-03T07:30:01.698Z,101102.34
2022-10-03T07:32:59.765Z,101101.38
2022-10-03T07:36:02.675Z,101107.72
2022-10-03T07:39:03.976Z,101104.94
2022-10-03T07:42:00.782Z,101104.94
2022-10-03T07:44:59.736Z,101103.19
2022-10-03T07:48:07.469Z,101110.31
2022-10-03T07:51:09.947Z,101110.31
2022-10-03T07:54:01.834Z,101113.00
2022-10-03T07:57:01.620Z,101110.16
2022-10-03T08:00:05.331Z,101120.06
2022-10-03T08:03:14.482Z,101118.09
2022-10-03T08:05:56.389Z,101120.94
2022-10-03T08:09:09.658Z,101123.75
2022-10-03T08:12:07.206Z,101123.13
2022-10-03T08:14:46.225Z,101131.28
2022-10-03T08:17:41.848Z,101137.66
2022-10-03T08:20:34.328Z,101131.66
2022-10-03T08:23:28.312Z,101127.13
2022-10-03T08:26:07.706Z,101136.28
2022-10-03T08:28:53.344Z,101133.75
2022-10-03T08:31:47.229Z,101132.03
2022-10-03T08:34:35.932Z,101140.22
2022-10-03T08:37:30.130Z,101134.94
2022-10-03T08:40:32.805Z,101138.63
2022-10-03T08:43:34.933Z,101128.13
2022-10-03T08:46:17.481Z,101131.75
2022-10-03T08:49:06.103Z,101135.41
2022-10-03T08:52:21.818Z,101126.63
2022-10-03T08:55:37.905Z,101133.00
2022-10-03T08:58:44.952Z,101129.56
2022-10-03T09:01:32.009Z,101127.63
2022-10-03T09:04:53.667Z,101123.69
2022-10-03T09:07:39.788Z,101127.97
2022-10-03T09:10:40.050Z,101124.09
2022-10-03T09:13:47.658Z,101126.63
2022-10-03T09:16:35.743Z,101129.34
2022-10-03T09:19:32.046Z,101132.50
2022-10-03T09:22:22.635Z,101124.44
2022-10-03T09:25:21.068Z,101134.97
2022-10-03T09:28:43.913Z,101136.66
2022-10-03T09:31:25.287Z,101133.13
2022-10-03T09:34:27.552Z,101141.81
2022-10-03T09:37:23.409Z,101138.16
2022-10-03T09:40:20.009Z,101138.91
2022-10-03T09:43:33.197Z,101132.53
2022-10-03T09:46:34.679Z,101129.72
2022-10-03T09:49:29.867Z,101125.34
2022-10-03T09:52:14.739Z,101126.78
2022-10-03T09:55:19.127Z,101129.47
2022-10-03T09:58:21.808Z,101135.72
2022-10-03T10:01:12.289Z,101142.78
2022-10-03T10:04:37.438Z,101143.66
2022-10-03T10:07:59.064Z,101148.31
2022-10-03T10:10:57.858Z,101141.34
2022-10-03T10:14:08.545Z,101145.00
2022-10-03T10:16:58.573Z,101152.25
2022-10-03T10:19:52.532Z,101143.31
2022-10-03T10:22:52.776Z,101137.94
2022-10-03T10:25:49.437Z,101145.28
2022-10-03T10:28:53.496Z,101144.16
2022-10-03T10:31:54.793Z,101135.63
2022-10-03T10:35:00.545Z,101138.16
2022-10-03T10:37:55.002Z,101147.34
2022-10-03T10:40:42.314Z,101144.72
2022-10-03T10:43:56.941Z,101142.31
2022-10-03T10:47:00.773Z,101139.84
2022-10-03T10:50:08.498Z,101138.34
2022-10-03T10:53:22.981Z,101139.47
2022-10-03T10:56:27.342Z,101144.13
2022-10-03T10:59:42.153Z,101145.06
2022-10-03T11:02:43.439Z,101143.63
2022-10-03T11:05:42.251Z,101144.72
2022-10-03T11:08:55.055Z,101144.00
2022-10-03T11:12:07.088Z,101140.81
2022-10-03T11:15:07.618Z,101139.22
2022-10-03T11:18:10.825Z,101145.78
2022-10-03T11:21:21.434Z,101149.34
2022-10-03T11:24:22.293Z,101144.59
2022-10-03T11:27:35.438Z,101143.25
2022-10-03T11:30:44.460Z,101145.44
2022-10-03T11:34:02.465Z,101145.06
2022-10-03T11:37:04.125Z,101149.25
2022-10-03T11:39:43.346Z,101133.75
2022-10-03T11:42:29.726Z,101140.44
2022-10-03T11:45:00.093Z,101146.56
2022-10-03T11:47:51.263Z,101144.66
2022-10-03T11:50:49.092Z,101135.63
2022-10-03T11:53:27.169Z,101141.81
2022-10-03T11:56:06.055Z,101150.66
2022-10-03T11:58:43.950Z,101147.97
2022-10-03T12:01:26.762Z,101146.00
2022-10-03T12:04:03.273Z,101136.56
2022-10-03T12:07:09.955Z,101149.53
2022-10-03T12:09:50.215Z,101146.97
2022-10-03T12:12:30.224Z,101143.31
2022-10-03T12:15:04.653Z,101150.38
2022-10-03T12:17:35.857Z,101153.94
2022-10-03T12:20:15.854Z,101149.53
2022-10-03T12:22:50.134Z,101150.38
2022-10-03T12:25:23.400Z,101146.72
2022-10-03T12:28:12.695Z,101150.38
2022-10-03T12:30:49.164Z,101152.34
2022-10-03T12:33:37.764Z,101145.72
2022-10-03T12:36:15.594Z,101156.72
2022-10-03T12:38:56.265Z,101153.53
2022-10-03T12:41:45.993Z,101153.16
2022-10-03T12:44:28.386Z,101138.22
2022-10-03T12:47:11.520Z,101156.56
2022-10-03T12:49:52.433Z,101156.94
2022-10-03T12:52:25.364Z,101154.50
2022-10-03T12:55:10.832Z,101151.91
2022-10-03T12:58:01.150Z,101153.84
2022-10-03T13:00:36.473Z,101156.53
2022-10-03T13:03:21.903Z,101144.94
2022-10-03T13:06:44.613Z,101145.19
2022-10-03T13:09:25.775Z,101141.75
2022-10-03T13:12:02.056Z,101145.44
2022-10-03T13:15:03.519Z,101146.53
2022-10-03T13:17:42.181Z,101143.22
2022-10-03T13:20:18.776Z,101140.66
2022-10-03T13:22:56.189Z,101136.09
2022-10-03T13:25:32.015Z,101139.28
2022-10-03T13:28:06.630Z,101081.47
2022-10-03T13:30:47.189Z,101136.63
2022-10-03T13:33:19.936Z,101137.34
2022-10-03T13:36:00.326Z,101131.88
2022-10-03T13:38:55.192Z,101137.88
2022-10-03T13:41:32.022Z,101127.00
2022-10-03T13:44:06.135Z,101121.00
2022-10-03T13:46:45.540Z,101125.16
2022-10-03T13:49:20.290Z,101132.88
2022-10-03T13:51:58.737Z,101130.03
2022-10-03T13:55:01.354Z,101127.25
2022-10-03T13:57:34.932Z,101131.75
2022-10-03T14:00:09.660Z,101124.56
2022-10-03T14:03:15.451Z,101127.97
2022-10-03T14:05:57.998Z,101123.84
2022-10-03T14:09:01.432Z,101122.72
2022-10-03T14:11:43.771Z,101116.59
2022-10-03T14:14:45.262Z,101084.09
2022-10-03T14:17:18.371Z,101107.44
2022-10-03T14:20:02.332Z,101114.78
2022-10-03T14:22:46.554Z,101113.06
2022-10-03T14:25:24.404Z,101113.06
2022-10-03T14:27:55.241Z,101110.50
2022-10-03T14:30:25.067Z,101115.63
2022-10-03T14:33:14.993Z,101115.78
2022-10-03T14:35:54.629Z,101113.41
2022-10-03T14:38:56.197Z,101110.25
2022-10-03T14:41:43.617Z,101097.91
2022-10-03T14:44:17.160Z,101111.09
2022-10-03T14:46:52.340Z,101100.59
2022-10-03T14:49:52.272Z,101105.34
2022-10-03T14:52:27.032Z,101107.53
2022-10-03T14:55:00.919Z,101099.72
2022-10-03T14:57:47.667Z,101104.34
2022-10-03T15:00:28.137Z,101099.22
2022-10-03T15:02:56.337Z,101092.25
2022-10-03T15:05:35.527Z,101096.75
2022-10-03T15:08:14.825Z,101090.75
2022-10-03T15:10:46.129Z,101101.50
2022-10-03T15:13:19.786Z,101098.81
2022-10-03T15:15:49.268Z,101095.41
2022-10-03T15:18:21.581Z,101096.13
2022-10-03T15:20:52.369Z,101103.38
2022-10-03T15:23:27.456Z,101099.69
2022-10-03T15:25:57.584Z,101078.63
2022-10-03T15:28:29.800Z,101107.75
2022-10-03T15:31:08.532Z,101105.28
2022-10-03T15:33:39.455Z,101110.78
2022-10-03T15:36:14.639Z,101103.69
2022-10-03T15:38:47.488Z,101107.25
2022-10-03T15:41:17.400Z,101107.38
2022-10-03T15:43:53.472Z,101109.69
2022-10-03T15:46:31.730Z,101120.22
2022-10-03T15:49:02.449Z,101123.88
2022-10-03T15:51:33.557Z,101122.19
2022-10-03T15:54:09.258Z,101118.50
2022-10-03T15:56:41.405Z,101098.38
2022-10-03T15:59:16.992Z,101124.00
2022-10-03T16:01:50.821Z,101117.75
2022-10-03T16:04:21.803Z,101122.19
2022-10-03T16:06:57.875Z,101125.69
2022-10-03T16:09:33.063Z,101128.38
2022-10-03T16:12:14.806Z,101134.63
2022-10-03T16:14:44.425Z,101131.19
2022-10-03T16:17:19.930Z,101131.19
2022-10-03T16:19:54.189Z,101126.91
2022-10-03T16:22:30.213Z,101122.75
2022-10-03T16:25:14.178Z,101120.91
2022-10-03T16:27:52.084Z,101121.97
2022-10-03T16:30:23.350Z,101121.25
2022-10-03T16:33:00.890Z,101128.56
2022-10-03T16:35:35.563Z,101119.00
2022-10-03T16:38:09.623Z,101126.09
2022-10-03T16:40:39.737Z,101125.25
2022-10-03T16:43:09.823Z,101117.53
2022-10-03T16:45:42.976Z,101123.66
2022-10-03T16:48:31.804Z,101116.69
2022-10-03T16:51:02.337Z,101121.41
2022-10-03T16:53:30.564Z,101124.25
2022-10-03T16:56:05.996Z,101122.50
2022-10-03T16:58:38.008Z,101123.50
2022-10-03T17:01:27.259Z,101094.50
2022-10-03T17:04:01.011Z,101118.59
2022-10-03T17:06:32.233Z,101095.38
2022-10-03T17:09:04.319Z,101116.75
2022-10-03T17:11:38.590Z,101103.28
2022-10-03T17:14:09.600Z,101107.22
2022-10-03T17:16:45.118Z,101109.16
2022-10-03T17:19:21.177Z,101098.78
2022-10-03T17:21:54.793Z,101109.66
2022-10-03T17:24:35.202Z,101111.69
2022-10-03T17:27:12.101Z,101107.41
2022-10-03T17:29:46.643Z,101109.38
2022-10-03T17:32:22.191Z,101107.88
2022-10-03T17:34:58.584Z,101123.09
2022-10-03T17:37:52.158Z,101122.38
2022-10-03T17:40:24.268Z,101116.41
2022-10-03T17:42:57.440Z,101121.78
2022-10-03T17:45:41.836Z,101126.38
2022-10-03T17:48:17.222Z,101122.00
2022-10-03T17:50:57.756Z,101128.31
2022-10-03T17:53:30.159Z,101123.91
2022-10-03T17:56:02.471Z,101123.06
2022-10-03T17:58:33.243Z,101121.22
2022-10-03T18:01:11.762Z,101122.09
2022-10-03T18:03:48.433Z,101118.66
2022-10-03T18:06:46.516Z,101125.84
2022-10-03T18:09:29.724Z,101118.16
2022-10-03T18:12:17.069Z,101121.56
2022-10-03T18:15:05.414Z,101129.63
2022-10-03T18:17:44.878Z,101126.19
2022-10-03T18:20:28.580Z,101105.84
2022-10-03T18:23:04.008Z,101134.25
2022-10-03T18:26:08.134Z,101137.91
2022-10-03T18:28:42.039Z,101133.38
2022-10-03T18:31:16.956Z,101125.25
2022-10-03T18:33:50.934Z,101128.75
2022-10-03T18:36:31.539Z,101124.25
2022-10-03T18:39:04.372Z,101124.25
2022-10-03T18:41:33.794Z,101130.47
2022-10-03T18:44:03.009Z,101119.22
2022-10-03T18:46:40.858Z,101134.75
2022-10-03T18:49:35.667Z,101121.34
2022-10-03T18:52:14.736Z,101124.16
2022-10-03T18:54:56.422Z,101133.91
2022-10-03T18:57:31.345Z,101130.34
2022-10-03T19:00:07.718Z,101134.75
2022-10-03T19:02:43.644Z,101127.66
2022-10-03T19:05:17.953Z,101139.28
2022-10-03T19:07:52.863Z,101133.91
2022-10-03T19:10:40.681Z,101148.06
2022-10-03T19:13:17.854Z,101118.28
2022-10-03T19:16:16.763Z,101127.66
2022-10-03T19:18:57.195Z,101125.97
2022-10-03T19:21:26.033Z,101129.75
2022-10-03T19:24:02.952Z,101129.63
2022-10-03T19:26:36.066Z,101129.75
2022-10-03T19:29:07.570Z,101135.13
2022-10-03T19:31:41.479Z,101135.13
2022-10-03T19:34:21.733Z,101129.84
2022-10-03T19:36:51.736Z,101135.22
2022-10-03T19:39:21.722Z,101078.53
2022-10-03T19:41:54.594Z,101126.84
2022-10-03T19:44:26.685Z,101120.59
2022-10-03T19:47:07.869Z,101117.81
2022-10-03T19:49:47.438Z,101115.25
2022-10-03T19:52:41.481Z,101117.94
2022-10-03T19:55:15.870Z,101110.75
2022-10-03T19:57:49.290Z,101117.81
2022-10-03T20:00:27.052Z,101104.22
2022-10-03T20:02:58.475Z,101119.75
2022-10-03T20:05:34.022Z,101120.47
2022-10-03T20:08:12.816Z,101123.28
2022-10-03T20:10:49.566Z,101119.75
2022-10-03T20:13:17.654Z,101123.28
2022-10-03T20:15:47.951Z,101118.78
2022-10-03T20:18:23.072Z,101122.31
2022-10-03T20:20:56.061Z,101119.63
2022-10-03T20:23:26.806Z,101122.31
2022-10-03T20:26:00.625Z,101108.72
2022-10-03T20:28:45.263Z,101123.28
2022-10-03T20:31:22.683Z,101138.88
2022-10-03T20:33:53.301Z,101133.50
2022-10-03T20:36:27.086Z,101133.50
2022-10-03T20:39:08.537Z,101125.56
2022-10-03T20:41:47.600Z,101123.00
2022-10-03T20:44:29.573Z,101112.06
2022-10-03T20:47:05.514Z,101130.19
2022-10-03T20:49:37.006Z,101123.13
2022-10-03T20:52:08.653Z,101122.13
2022-10-03T20:54:38.096Z,101123.97
2022-10-03T20:57:15.206Z,101130.91
2022-10-03T20:59:47.573Z,101122.03
2022-10-03T21:02:25.228Z,101126.41
2022-10-03T21:04:57.848Z,101121.19
2022-10-03T21:07:40.202Z,101123.00
2022-10-03T21:10:19.723Z,101107.13
2022-10-03T21:12:49.966Z,101119.34
2022-10-03T21:15:30.349Z,101104.94
2022-10-03T21:17:59.233Z,101106.03
2022-10-03T21:20:33.607Z,101113.00
2022-10-03T21:23:08.196Z,101117.41
2022-10-03T21:25:41.028Z,101112.03
2022-10-03T21:28:24.207Z,101110.09
2022-10-03T21:31:08.488Z,101108.16
2022-10-03T21:33:42.785Z,101107.19
2022-10-03T21:36:19.525Z,101104.28
2022-10-03T21:38:51.368Z,101099.88
2022-10-03T21:41:30.319Z,101098.69
2022-10-03T21:44:00.625Z,101096.00
2022-10-03T21:46:37.781Z,101097.59
2022-10-03T21:49:26.077Z,101093.06
2022-10-03T21:52:25.753Z,101096.75
2022-10-03T21:55:06.478Z,101091.59
2022-10-03T21:57:46.468Z,101089.00
2022-10-03T22:00:17.559Z,101092.78
2022-10-03T22:02:54.523Z,101090.09
2022-10-03T22:05:31.128Z,101093.78
2022-10-03T22:07:59.308Z,101085.09
2022-10-03T22:10:32.509Z,101086.69
2022-10-03T22:13:08.256Z,101087.69
2022-10-03T22:15:44.668Z,101090.34
2022-10-03T22:18:15.748Z,101075.13
2022-10-03T22:20:54.842Z,101087.91
2022-10-03T22:23:34.331Z,101081.78
2022-10-03T22:26:17.802Z,101050.94
2022-10-03T22:28:55.934Z,101072.97
2022-10-03T22:31:31.007Z,101038.69
2022-10-03T22:34:12.336Z,101078.53
2022-10-03T22:36:41.545Z,101063.53
2022-10-03T22:39:12.348Z,101064.38
2022-10-03T22:41:44.484Z,101069.88
2022-10-03T22:44:15.094Z,101061.09
2022-10-03T22:46:46.956Z,101056.56
2022-10-03T22:49:20.323Z,101024.78
2022-10-03T22:51:51.541Z,101062.19
2022-10-03T22:54:20.340Z,101057.63
2022-10-03T22:56:54.123Z,101059.50
2022-10-03T22:59:27.101Z,101045.78
2022-10-03T23:01:58.349Z,101046.31
2022-10-03T23:04:33.041Z,101056.16
2022-10-03T23:07:23.393Z,101048.13
2022-10-03T23:10:08.931Z,101059.94
2022-10-03T23:12:43.110Z,101059.94
2022-10-03T23:15:15.174Z,101067.25
2022-10-03T23:18:01.526Z,101063.78
2022-10-03T23:20:50.379Z,101063.78
2022-10-03T23:23:23.004Z,101063.78
2022-10-03T23:26:02.682Z,101054.06
2022-10-03T23:28:43.710Z,101051.47
2022-10-03T23:31:50.327Z,101049.03
2022-10-03T23:34:48.021Z,101055.50
2022-10-03T23:37:43.293Z,101052.81
2022-10-03T23:40:28.968Z,101058.25
2022-10-03T23:43:02.136Z,101055.72
2022-10-03T23:45:31.148Z,101058.38
2022-10-03T23:48:03.680Z,101063.63
2022-10-03T23:50:42.378Z,101067.31
2022-10-03T23:53:21.396Z,101065.44
2022-10-03T23:55:49.521Z,101053.75
2022-10-03T23:58:27.357Z,101062.75
